sensor_id;sensor_type;location;lat;lon;timestamp;pressure;altitude;pressure_sealevel;temperature;humidity
15914;BME280;8055;51.930;8.840;2023-05-02T00:00:11;76035.75;;;-145.72;100.00
15914;BME280;8055;51.930;8.840;2023-05-02T00:02:38;76033.69;;;-145.72;100.00
15914;BME280;8055;51.930;8.840;2023-05-02T00:05:04;76044.03;;;-145.72;100.00
15914;BME280;8055;51.930;8.840;2023-05-02T00:07:30;76044.03;;;-145.72;100.00
15914;BME280;8055;51.930;8.840;2023-05-02T00:09:55;76041.97;;;-145.72;100.00
15914;BME280;8055;51.930;8.840;2023-05-02T00:12:21;76037.84;;;-145.72;100.00
15914;BME280;8055;51.930;8.840;2023-05-02T00:14:47;76039.91;;;-145.72;100.00
15914;BME280;8055;51.930;8.840;2023-05-02T00:17:16;76037.84;;;-145.72;100.00
15914;BME280;8055;51.930;8.840;2023-05-02T00:19:43;76029.56;;;-145.72;100.00
15914;BME280;8055;51.930;8.840;2023-05-02T00:22:08;76033.69;;;-145.72;100.00
15914;BME280;8055;51.930;8.840;2023-05-02T00:24:33;76031.63;;;-145.72;100.00
15914;BME280;8055;51.930;8.840;2023-05-02T00:26:59;76039.91;;;-145.72;100.00
15914;BME280;8055;51.930;8.840;2023-05-02T00:29:25;76044.03;;;-145.72;100.00
15914;BME280;8055;51.930;8.840;2023-05-02T00:31:50;76035.75;;;-145.72;100.00
15914;BME280;8055;51.930;8.840;2023-05-02T00:34:15;76039.91;;;-145.72;100.00
15914;BME280;8055;51.930;8.840;2023-05-02T00:36:41;76039.91;;;-145.72;100.00
15914;BME280;8055;51.930;8.840;2023-05-02T00:39:06;76048.19;;;-145.72;100.00
15914;BME280;8055;51.930;8.840;2023-05-02T00:41:31;76048.19;;;-145.72;100.00
15914;BME280;8055;51.930;8.840;2023-05-02T00:43:57;76046.09;;;-145.72;100.00
15914;BME280;8055;51.930;8.840;2023-05-02T00:46:23;76052.31;;;-145.72;100.00
15914;BME280;8055;51.930;8.840;2023-05-02T00:48:48;76056.47;;;-145.72;100.00
15914;BME280;8055;51.930;8.840;2023-05-02T00:51:14;76058.53;;;-145.72;100.00
15914;BME280;8055;51.930;8.840;2023-05-02T00:53:40;76058.53;;;-145.72;100.00
15914;BME280;8055;51.930;8.840;2023-05-02T00:56:07;76060.59;;;-145.72;100.00
15914;BME280;8055;51.930;8.840;2023-05-02T00:58:33;76058.53;;;-145.72;100.00
15914;BME280;8055;51.930;8.840;2023-05-02T01:03:58;76062.66;;;-145.72;100.00
15914;BME280;8055;51.930;8.840;2023-05-02T01:12:12;76075.09;;;-145.72;100.00
15914;BME280;8055;51.930;8.840;2023-05-02T01:14:44;76077.16;;;-145.72;100.00
15914;BME280;8055;51.930;8.840;2023-05-02T01:17:13;76087.50;;;-145.72;100.00
15914;BME280;8055;51.930;8.840;2023-05-02T01:19:42;76087.50;;;-145.72;100.00
15914;BME280;8055;51.930;8.840;2023-05-02T01:22:10;76089.56;;;-145.72;100.00
15914;BME280;8055;51.930;8.840;2023-05-02T01:27:46;76087.50;;;-145.72;100.00
15914;BME280;8055;51.930;8.840;2023-05-02T01:30:16;76093.72;;;-145.72;100.00
15914;BME280;8055;51.930;8.840;2023-05-02T01:32:45;76099.91;;;-145.72;100.00
15914;BME280;8055;51.930;8.840;2023-05-02T01:35:14;76108.19;;;-145.72;100.00
15914;BME280;8055;51.930;8.840;2023-05-02T01:37:42;76108.19;;;-145.72;100.00
15914;BME280;8055;51.930;8.840;2023-05-02T01:40:09;76112.31;;;-145.72;100.00
15914;BME280;8055;51.930;8.840;2023-05-02T01:42:36;76122.69;;;-145.72;100.00
15914;BME280;8055;51.930;8.840;2023-05-02T01:45:07;76130.94;;;-145.72;100.00
15914;BME280;8055;51.930;8.840;2023-05-02T01:47:34;76133.03;;;-145.72;100.00
15914;BME280;8055;51.930;8.840;2023-05-02T01:50:02;76137.16;;;-145.72;100.00
15914;BME280;8055;51.930;8.840;2023-05-02T01:52:29;76135.09;;;-145.72;100.00
15914;BME280;8055;51.930;8.840;2023-05-02T01:54:57;76135.09;;;-145.72;100.00
15914;BME280;8055;51.930;8.840;2023-05-02T01:57:24;76130.94;;;-145.72;100.00
15914;BME280;8055;51.930;8.840;2023-05-02T01:59:49;76139.22;;;-145.72;100.00
15914;BME280;8055;51.930;8.840;2023-05-02T02:02:15;76137.16;;;-145.72;100.00
15914;BME280;8055;51.930;8.840;2023-05-02T02:04:42;76135.09;;;-145.72;100.00
15914;BME280;8055;51.930;8.840;2023-05-02T02:07:12;76135.09;;;-145.72;100.00
15914;BME280;8055;51.930;8.840;2023-05-02T02:09:38;76143.38;;;-145.72;100.00
15914;BME280;8055;51.930;8.840;2023-05-02T02:12:15;76143.38;;;-145.72;100.00
15914;BME280;8055;51.930;8.840;2023-05-02T02:14:56;76147.50;;;-145.72;100.00
15914;BME280;8055;51.930;8.840;2023-05-02T02:17:29;76147.50;;;-145.72;100.00
15914;BME280;8055;51.930;8.840;2023-05-02T02:19:59;76149.56;;;-145.72;100.00
15914;BME280;8055;51.930;8.840;2023-05-02T02:22:27;76143.38;;;-145.72;100.00
15914;BME280;8055;51.930;8.840;2023-05-02T02:24:55;76145.44;;;-145.72;100.00
15914;BME280;8055;51.930;8.840;2023-05-02T02:27:21;76157.84;;;-145.72;100.00
15914;BME280;8055;51.930;8.840;2023-05-02T02:29:47;76151.66;;;-145.72;100.00
15914;BME280;8055;51.930;8.840;2023-05-02T02:32:12;76153.72;;;-145.72;100.00
15914;BME280;8055;51.930;8.840;2023-05-02T02:34:37;76151.66;;;-145.72;100.00
15914;BME280;8055;51.930;8.840;2023-05-02T02:37:34;76151.66;;;-145.72;100.00
15914;BME280;8055;51.930;8.840;2023-05-02T02:45:29;76166.13;;;-145.72;100.00
15914;BME280;8055;51.930;8.840;2023-05-02T02:51:12;76170.28;;;-145.72;100.00
15914;BME280;8055;51.930;8.840;2023-05-02T02:56:40;76170.28;;;-145.72;100.00
15914;BME280;8055;51.930;8.840;2023-05-02T02:59:14;76178.56;;;-145.72;100.00
15914;BME280;8055;51.930;8.840;2023-05-02T03:01:42;76180.63;;;-145.72;100.00
15914;BME280;8055;51.930;8.840;2023-05-02T03:04:11;76186.81;;;-145.72;100.00
15914;BME280;8055;51.930;8.840;2023-05-02T03:06:37;76195.09;;;-145.72;100.00
15914;BME280;8055;51.930;8.840;2023-05-02T03:09:03;76184.75;;;-145.72;100.00
15914;BME280;8055;51.930;8.840;2023-05-02T03:11:28;76190.97;;;-145.72;100.00
15914;BME280;8055;51.930;8.840;2023-05-02T03:13:54;76195.09;;;-145.72;100.00
15914;BME280;8055;51.930;8.840;2023-05-02T03:16:33;76190.97;;;-145.72;100.00
15914;BME280;8055;51.930;8.840;2023-05-02T03:18:59;76186.81;;;-145.72;100.00
15914;BME280;8055;51.930;8.840;2023-05-02T03:21:24;76180.63;;;-145.72;100.00
15914;BME280;8055;51.930;8.840;2023-05-02T03:23:49;76184.75;;;-145.72;100.00
15914;BME280;8055;51.930;8.840;2023-05-02T03:26:16;76193.03;;;-145.72;100.00
15914;BME280;8055;51.930;8.840;2023-05-02T03:28:41;76182.69;;;-145.72;100.00
15914;BME280;8055;51.930;8.840;2023-05-02T03:31:10;76193.03;;;-145.72;100.00
15914;BME280;8055;51.930;8.840;2023-05-02T03:33:36;76188.91;;;-145.72;100.00
15914;BME280;8055;51.930;8.840;2023-05-02T03:36:01;76193.03;;;-145.72;100.00
15914;BME280;8055;51.930;8.840;2023-05-02T03:38:28;76195.09;;;-145.72;100.00
15914;BME280;8055;51.930;8.840;2023-05-02T03:40:56;76199.25;;;-145.72;100.00
15914;BME280;8055;51.930;8.840;2023-05-02T03:43:21;76188.91;;;-145.72;100.00
15914;BME280;8055;51.930;8.840;2023-05-02T03:45:46;76190.97;;;-145.72;100.00
15914;BME280;8055;51.930;8.840;2023-05-02T03:48:12;76197.19;;;-145.72;100.00
15914;BME280;8055;51.930;8.840;2023-05-02T03:50:37;76199.25;;;-145.72;100.00
15914;BME280;8055;51.930;8.840;2023-05-02T03:53:02;76203.38;;;-145.72;100.00
15914;BME280;8055;51.930;8.840;2023-05-02T03:55:28;76207.53;;;-145.72;100.00
15914;BME280;8055;51.930;8.840;2023-05-02T03:57:53;76213.72;;;-145.72;100.00
15914;BME280;8055;51.930;8.840;2023-05-02T04:00:19;76217.88;;;-145.72;100.00
15914;BME280;8055;51.930;8.840;2023-05-02T04:02:44;76226.16;;;-145.72;100.00
15914;BME280;8055;51.930;8.840;2023-05-02T04:05:10;76234.44;;;-145.72;100.00
15914;BME280;8055;51.930;8.840;2023-05-02T04:07:35;76238.56;;;-145.72;100.00
15914;BME280;8055;51.930;8.840;2023-05-02T04:10:00;76238.56;;;-145.72;100.00
15914;BME280;8055;51.930;8.840;2023-05-02T04:12:26;76240.63;;;-145.72;100.00
15914;BME280;8055;51.930;8.840;2023-05-02T04:14:51;76244.78;;;-145.72;100.00
15914;BME280;8055;51.930;8.840;2023-05-02T04:17:16;76248.91;;;-145.72;100.00
15914;BME280;8055;51.930;8.840;2023-05-02T04:19:42;76255.13;;;-145.72;100.00
15914;BME280;8055;51.930;8.840;2023-05-02T04:22:07;76257.19;;;-145.72;100.00
15914;BME280;8055;51.930;8.840;2023-05-02T04:24:33;76259.25;;;-145.72;100.00
15914;BME280;8055;51.930;8.840;2023-05-02T04:26:58;76263.41;;;-145.72;100.00
15914;BME280;8055;51.930;8.840;2023-05-02T04:29:23;76261.34;;;-145.72;100.00
15914;BME280;8055;51.930;8.840;2023-05-02T04:31:50;76277.88;;;-145.72;100.00
15914;BME280;8055;51.930;8.840;2023-05-02T04:34:15;76279.97;;;-145.72;100.00
15914;BME280;8055;51.930;8.840;2023-05-02T04:36:41;76279.97;;;-145.72;100.00
15914;BME280;8055;51.930;8.840;2023-05-02T04:39:06;76279.97;;;-145.72;100.00
15914;BME280;8055;51.930;8.840;2023-05-02T04:41:32;76288.22;;;-145.72;100.00
15914;BME280;8055;51.930;8.840;2023-05-02T04:43:58;76284.09;;;-145.72;100.00
15914;BME280;8055;51.930;8.840;2023-05-02T04:46:23;76290.31;;;-145.72;100.00
15914;BME280;8055;51.930;8.840;2023-05-02T04:48:49;76292.38;;;-145.72;100.00
15914;BME280;8055;51.930;8.840;2023-05-02T04:51:14;76288.22;;;-145.72;100.00
15914;BME280;8055;51.930;8.840;2023-05-02T04:53:40;76290.31;;;-145.72;100.00
15914;BME280;8055;51.930;8.840;2023-05-02T04:56:06;76292.38;;;-145.72;100.00
15914;BME280;8055;51.930;8.840;2023-05-02T04:58:31;76296.50;;;-145.72;100.00
15914;BME280;8055;51.930;8.840;2023-05-02T05:00:59;76296.50;;;-145.72;100.00
15914;BME280;8055;51.930;8.840;2023-05-02T05:03:24;76298.59;;;-145.72;100.00
15914;BME280;8055;51.930;8.840;2023-05-02T05:05:50;76296.50;;;-145.72;100.00
15914;BME280;8055;51.930;8.840;2023-05-02T05:08:15;76296.50;;;-145.72;100.00
15914;BME280;8055;51.930;8.840;2023-05-02T05:10:41;76300.66;;;-145.72;100.00
15914;BME280;8055;51.930;8.840;2023-05-02T05:13:07;76313.06;;;-145.72;100.00
15914;BME280;8055;51.930;8.840;2023-05-02T05:15:32;76317.22;;;-145.72;100.00
15914;BME280;8055;51.930;8.840;2023-05-02T05:17:57;76325.47;;;-145.72;100.00
15914;BME280;8055;51.930;8.840;2023-05-02T05:20:23;76333.75;;;-145.72;100.00
15914;BME280;8055;51.930;8.840;2023-05-02T05:22:48;76321.34;;;-145.72;100.00
15914;BME280;8055;51.930;8.840;2023-05-02T05:25:14;76331.69;;;-145.72;100.00
15914;BME280;8055;51.930;8.840;2023-05-02T05:27:40;76327.56;;;-145.72;100.00
15914;BME280;8055;51.930;8.840;2023-05-02T05:30:06;76325.47;;;-145.72;100.00
15914;BME280;8055;51.930;8.840;2023-05-02T05:32:33;76331.69;;;-145.72;100.00
15914;BME280;8055;51.930;8.840;2023-05-02T05:34:58;76339.97;;;-145.72;100.00
15914;BME280;8055;51.930;8.840;2023-05-02T05:37:24;76337.91;;;-145.72;100.00
15914;BME280;8055;51.930;8.840;2023-05-02T05:39:49;76337.91;;;-145.72;100.00
15914;BME280;8055;51.930;8.840;2023-05-02T05:42:15;76337.91;;;-145.72;100.00
15914;BME280;8055;51.930;8.840;2023-05-02T05:44:41;76339.97;;;-145.72;100.00
15914;BME280;8055;51.930;8.840;2023-05-02T05:47:06;76342.03;;;-145.72;100.00
15914;BME280;8055;51.930;8.840;2023-05-02T05:49:31;76344.09;;;-145.72;100.00
15914;BME280;8055;51.930;8.840;2023-05-02T05:51:57;76356.53;;;-145.72;100.00
15914;BME280;8055;51.930;8.840;2023-05-02T05:54:22;76352.38;;;-145.72;100.00
15914;BME280;8055;51.930;8.840;2023-05-02T05:56:48;76360.66;;;-145.72;100.00
15914;BME280;8055;51.930;8.840;2023-05-02T05:59:14;76362.72;;;-145.72;100.00
15914;BME280;8055;51.930;8.840;2023-05-02T06:01:39;76373.09;;;-145.72;100.00
15914;BME280;8055;51.930;8.840;2023-05-02T06:04:05;76389.63;;;-145.72;100.00
15914;BME280;8055;51.930;8.840;2023-05-02T06:06:31;76387.56;;;-145.72;100.00
15914;BME280;8055;51.930;8.840;2023-05-02T06:08:57;76412.41;;;-145.72;100.00
15914;BME280;8055;51.930;8.840;2023-05-02T06:11:22;76414.47;;;-145.72;100.00
15914;BME280;8055;51.930;8.840;2023-05-02T06:13:51;76424.81;;;-145.72;100.00
15914;BME280;8055;51.930;8.840;2023-05-02T06:16:17;76460.00;;;-145.72;100.00
15914;BME280;8055;51.930;8.840;2023-05-02T06:18:43;76484.84;;;-145.72;100.00
15914;BME280;8055;51.930;8.840;2023-05-02T06:21:09;76517.97;;;-145.72;100.00
15914;BME280;8055;51.930;8.840;2023-05-02T06:23:34;76528.31;;;-145.72;100.00
15914;BME280;8055;51.930;8.840;2023-05-02T06:26:01;76571.75;;;-145.72;100.00
15914;BME280;8055;51.930;8.840;2023-05-02T06:28:27;76588.31;;;-145.72;100.00
15914;BME280;8055;51.930;8.840;2023-05-02T06:31:01;76606.94;;;-145.72;100.00
15914;BME280;8055;51.930;8.840;2023-05-02T06:33:31;76613.16;;;-145.72;100.00
15914;BME280;8055;51.930;8.840;2023-05-02T06:35:57;76640.06;;;-145.72;100.00
15914;BME280;8055;51.930;8.840;2023-05-02T06:38:23;76648.34;;;-145.72;100.00
15914;BME280;8055;51.930;8.840;2023-05-02T06:40:48;76660.75;;;-145.72;100.00
15914;BME280;8055;51.930;8.840;2023-05-02T06:43:15;76654.56;;;-145.72;100.00
15914;BME280;8055;51.930;8.840;2023-05-02T06:45:40;76662.81;;;-145.72;100.00
15914;BME280;8055;51.930;8.840;2023-05-02T06:48:07;76681.47;;;-145.72;100.00
15914;BME280;8055;51.930;8.840;2023-05-02T06:50:33;76677.31;;;-145.72;100.00
15914;BME280;8055;51.930;8.840;2023-05-02T06:52:59;76698.00;;;-145.72;100.00
15914;BME280;8055;51.930;8.840;2023-05-02T06:55:25;76698.00;;;-145.72;100.00
15914;BME280;8055;51.930;8.840;2023-05-02T06:57:50;76739.41;;;-145.72;100.00
15914;BME280;8055;51.930;8.840;2023-05-02T07:00:17;76739.41;;;-145.72;100.00
15914;BME280;8055;51.930;8.840;2023-05-02T07:02:45;76727.00;;;-145.72;100.00
15914;BME280;8055;51.930;8.840;2023-05-02T07:05:11;76735.28;;;-145.72;100.00
15914;BME280;8055;51.930;8.840;2023-05-02T07:07:36;76745.63;;;-145.72;100.00
15914;BME280;8055;51.930;8.840;2023-05-02T07:10:03;76735.28;;;-145.72;100.00
15914;BME280;8055;51.930;8.840;2023-05-02T07:12:28;76739.41;;;-145.72;100.00
15914;BME280;8055;51.930;8.840;2023-05-02T07:14:53;76722.84;;;-145.72;100.00
15914;BME280;8055;51.930;8.840;2023-05-02T07:17:19;76716.66;;;-145.72;100.00
15914;BME280;8055;51.930;8.840;2023-05-02T07:19:45;76724.91;;;-145.72;100.00
15914;BME280;8055;51.930;8.840;2023-05-02T07:22:10;76710.44;;;-145.72;100.00
15914;BME280;8055;51.930;8.840;2023-05-02T07:24:39;76727.00;;;-145.72;100.00
15914;BME280;8055;51.930;8.840;2023-05-02T07:27:05;76731.13;;;-145.72;100.00
15914;BME280;8055;51.930;8.840;2023-05-02T07:29:30;76741.47;;;-145.72;100.00
15914;BME280;8055;51.930;8.840;2023-05-02T07:31:55;76743.53;;;-145.72;100.00
15914;BME280;8055;51.930;8.840;2023-05-02T07:34:21;76745.63;;;-145.72;100.00
15914;BME280;8055;51.930;8.840;2023-05-02T07:36:46;76733.19;;;-145.72;100.00
15914;BME280;8055;51.930;8.840;2023-05-02T07:39:11;76739.41;;;-145.72;100.00
15914;BME280;8055;51.930;8.840;2023-05-02T07:41:37;76722.84;;;-145.72;100.00
15914;BME280;8055;51.930;8.840;2023-05-02T07:44:02;76727.00;;;-145.72;100.00
15914;BME280;8055;51.930;8.840;2023-05-02T07:46:28;76727.00;;;-145.72;100.00
15914;BME280;8055;51.930;8.840;2023-05-02T07:48:53;76724.91;;;-145.72;100.00
15914;BME280;8055;51.930;8.840;2023-05-02T07:51:19;76729.06;;;-145.72;100.00
15914;BME280;8055;51.930;8.840;2023-05-02T07:53:48;76735.28;;;-145.72;100.00
15914;BME280;8055;51.930;8.840;2023-05-02T07:56:14;76762.19;;;-145.72;100.00
15914;BME280;8055;51.930;8.840;2023-05-02T07:58:39;76751.81;;;-145.72;100.00
15914;BME280;8055;51.930;8.840;2023-05-02T08:01:05;76758.03;;;-145.72;100.00
15914;BME280;8055;51.930;8.840;2023-05-02T08:03:30;76766.31;;;-145.72;100.00
15914;BME280;8055;51.930;8.840;2023-05-02T08:05:56;76768.38;;;-145.72;100.00
15914;BME280;8055;51.930;8.840;2023-05-02T08:08:21;76762.19;;;-145.72;100.00
15914;BME280;8055;51.930;8.840;2023-05-02T08:10:47;76770.44;;;-145.72;100.00
15914;BME280;8055;51.930;8.840;2023-05-02T08:13:16;76778.72;;;-145.72;100.00
15914;BME280;8055;51.930;8.840;2023-05-02T08:15:41;76766.31;;;-145.72;100.00
15914;BME280;8055;51.930;8.840;2023-05-02T08:18:07;76768.38;;;-145.72;100.00
15914;BME280;8055;51.930;8.840;2023-05-02T08:20:32;76766.31;;;-145.72;100.00
15914;BME280;8055;51.930;8.840;2023-05-02T08:22:57;76778.72;;;-145.72;100.00
15914;BME280;8055;51.930;8.840;2023-05-02T08:25:23;76780.81;;;-145.72;100.00
15914;BME280;8055;51.930;8.840;2023-05-02T08:27:48;76795.28;;;-145.72;100.00
15914;BME280;8055;51.930;8.840;2023-05-02T08:30:13;76807.72;;;-145.72;100.00
15914;BME280;8055;51.930;8.840;2023-05-02T08:32:39;76809.78;;;-145.72;100.00
15914;BME280;8055;51.930;8.840;2023-05-02T08:35:05;76826.34;;;-145.72;100.00
15914;BME280;8055;51.930;8.840;2023-05-02T08:37:30;76844.97;;;-145.72;100.00
15914;BME280;8055;51.930;8.840;2023-05-02T08:39:56;76828.41;;;-145.72;100.00
15914;BME280;8055;51.930;8.840;2023-05-02T08:42:22;76836.69;;;-145.72;100.00
15914;BME280;8055;51.930;8.840;2023-05-02T08:44:48;76842.91;;;-145.72;100.00
15914;BME280;8055;51.930;8.840;2023-05-02T08:47:14;76847.03;;;-145.72;100.00
15914;BME280;8055;51.930;8.840;2023-05-02T08:49:41;76838.75;;;-145.72;100.00
15914;BME280;8055;51.930;8.840;2023-05-02T08:52:08;76826.34;;;-145.72;100.00
15914;BME280;8055;51.930;8.840;2023-05-02T08:54:36;76832.53;;;-145.72;100.00
15914;BME280;8055;51.930;8.840;2023-05-02T08:57:03;76834.63;;;-145.72;100.00
15914;BME280;8055;51.930;8.840;2023-05-02T08:59:28;76830.47;;;-145.72;100.00
15914;BME280;8055;51.930;8.840;2023-05-02T09:02:00;76851.19;;;-145.72;100.00
15914;BME280;8055;51.930;8.840;2023-05-02T09:04:30;76842.91;;;-145.72;100.00
15914;BME280;8055;51.930;8.840;2023-05-02T09:06:58;76830.47;;;-145.72;100.00
15914;BME280;8055;51.930;8.840;2023-05-02T09:09:25;76818.06;;;-145.72;100.00
15914;BME280;8055;51.930;8.840;2023-05-02T09:11:51;76822.19;;;-145.72;100.00
15914;BME280;8055;51.930;8.840;2023-05-02T09:14:16;76818.06;;;-145.72;100.00
15914;BME280;8055;51.930;8.840;2023-05-02T09:16:42;76824.28;;;-145.72;100.00
15914;BME280;8055;51.930;8.840;2023-05-02T09:19:08;76828.41;;;-145.72;100.00
15914;BME280;8055;51.930;8.840;2023-05-02T09:21:37;76830.47;;;-145.72;100.00
15914;BME280;8055;51.930;8.840;2023-05-02T09:24:19;76838.75;;;-145.72;100.00
15914;BME280;8055;51.930;8.840;2023-05-02T09:27:04;76834.63;;;-145.72;100.00
15914;BME280;8055;51.930;8.840;2023-05-02T09:29:31;76834.63;;;-145.72;100.00
15914;BME280;8055;51.930;8.840;2023-05-02T09:32:04;76838.75;;;-145.72;100.00
15914;BME280;8055;51.930;8.840;2023-05-02T09:34:29;76844.97;;;-145.72;100.00
15914;BME280;8055;51.930;8.840;2023-05-02T09:36:56;76838.75;;;-145.72;100.00
15914;BME280;8055;51.930;8.840;2023-05-02T09:39:27;76836.69;;;-145.72;100.00
15914;BME280;8055;51.930;8.840;2023-05-02T09:41:56;76836.69;;;-145.72;100.00
15914;BME280;8055;51.930;8.840;2023-05-02T09:44:26;76820.13;;;-145.72;100.00
15914;BME280;8055;51.930;8.840;2023-05-02T09:47:00;76811.84;;;-145.72;100.00
15914;BME280;8055;51.930;8.840;2023-05-02T09:49:52;76820.13;;;-145.72;100.00
15914;BME280;8055;51.930;8.840;2023-05-02T09:52:19;76818.06;;;-145.72;100.00
15914;BME280;8055;51.930;8.840;2023-05-02T09:54:47;76826.34;;;-145.72;100.00
15914;BME280;8055;51.930;8.840;2023-05-02T09:57:16;76824.28;;;-145.72;100.00
15914;BME280;8055;51.930;8.840;2023-05-02T09:59:54;76822.19;;;-145.72;100.00
15914;BME280;8055;51.930;8.840;2023-05-02T10:02:20;76842.91;;;-145.72;100.00
15914;BME280;8055;51.930;8.840;2023-05-02T10:04:46;76853.25;;;-145.72;100.00
15914;BME280;8055;51.930;8.840;2023-05-02T10:07:13;76857.38;;;-145.72;100.00
15914;BME280;8055;51.930;8.840;2023-05-02T10:09:43;76867.72;;;-145.72;100.00
15914;BME280;8055;51.930;8.840;2023-05-02T10:12:13;76847.03;;;-145.72;100.00
15914;BME280;8055;51.930;8.840;2023-05-02T10:14:39;76828.41;;;-145.72;100.00
15914;BME280;8055;51.930;8.840;2023-05-02T10:17:21;76842.91;;;-145.72;100.00
15914;BME280;8055;51.930;8.840;2023-05-02T10:19:53;76822.19;;;-145.72;100.00
15914;BME280;8055;51.930;8.840;2023-05-02T10:22:21;76805.63;;;-145.72;100.00
15914;BME280;8055;51.930;8.840;2023-05-02T10:24:51;76803.56;;;-145.72;100.00
15914;BME280;8055;51.930;8.840;2023-05-02T10:27:17;76803.56;;;-145.72;100.00
15914;BME280;8055;51.930;8.840;2023-05-02T10:29:43;76822.19;;;-145.72;100.00
15914;BME280;8055;51.930;8.840;2023-05-02T10:32:10;76836.69;;;-145.72;100.00
15914;BME280;8055;51.930;8.840;2023-05-02T10:34:35;76830.47;;;-145.72;100.00
15914;BME280;8055;51.930;8.840;2023-05-02T10:37:02;76816.00;;;-145.72;100.00
15914;BME280;8055;51.930;8.840;2023-05-02T10:39:28;76797.38;;;-145.72;100.00
15914;BME280;8055;51.930;8.840;2023-05-02T10:41:55;76791.16;;;-145.72;100.00
15914;BME280;8055;51.930;8.840;2023-05-02T10:44:32;76784.94;;;-145.72;100.00
15914;BME280;8055;51.930;8.840;2023-05-02T10:46:58;76780.81;;;-145.72;100.00
15914;BME280;8055;51.930;8.840;2023-05-02T10:49:24;76778.72;;;-145.72;100.00
15914;BME280;8055;51.930;8.840;2023-05-02T10:51:51;76784.94;;;-145.72;100.00
15914;BME280;8055;51.930;8.840;2023-05-02T10:54:24;76784.94;;;-145.72;100.00
15914;BME280;8055;51.930;8.840;2023-05-02T10:59:42;76795.28;;;-145.72;100.00
15914;BME280;8055;51.930;8.840;2023-05-02T11:05:13;76780.81;;;-145.72;100.00
15914;BME280;8055;51.930;8.840;2023-05-02T11:07:38;76791.16;;;-145.72;100.00
15914;BME280;8055;51.930;8.840;2023-05-02T11:12:49;76789.09;;;-145.72;100.00
15914;BME280;8055;51.930;8.840;2023-05-02T11:18:07;76824.28;;;-145.72;100.00
15914;BME280;8055;51.930;8.840;2023-05-02T11:20:38;76818.06;;;-145.72;100.00
15914;BME280;8055;51.930;8.840;2023-05-02T11:25:52;76834.63;;;-145.72;100.00
15914;BME280;8055;51.930;8.840;2023-05-02T11:31:04;76847.03;;;-145.72;100.00
15914;BME280;8055;51.930;8.840;2023-05-02T11:33:30;76824.28;;;-145.72;100.00
15914;BME280;8055;51.930;8.840;2023-05-02T11:35:55;76801.50;;;-145.72;100.00
15914;BME280;8055;51.930;8.840;2023-05-02T11:38:22;76782.88;;;-145.72;100.00
15914;BME280;8055;51.930;8.840;2023-05-02T11:40:49;76776.66;;;-145.72;100.00
15914;BME280;8055;51.930;8.840;2023-05-02T11:43:17;76758.03;;;-145.72;100.00
15914;BME280;8055;51.930;8.840;2023-05-02T11:45:43;76768.38;;;-145.72;100.00
15914;BME280;8055;51.930;8.840;2023-05-02T11:48:11;76768.38;;;-145.72;100.00
15914;BME280;8055;51.930;8.840;2023-05-02T11:50:57;76755.97;;;-145.72;100.00
15914;BME280;8055;51.930;8.840;2023-05-02T11:53:27;76766.31;;;-145.72;100.00
15914;BME280;8055;51.930;8.840;2023-05-02T11:56:01;76755.97;;;-145.72;100.00
15914;BME280;8055;51.930;8.840;2023-05-02T11:58:28;76751.81;;;-145.72;100.00
15914;BME280;8055;51.930;8.840;2023-05-02T12:00:58;76755.97;;;-145.72;100.00
15914;BME280;8055;51.930;8.840;2023-05-02T12:03:29;76739.41;;;-145.72;100.00
15914;BME280;8055;51.930;8.840;2023-05-02T12:05:55;76741.47;;;-145.72;100.00
15914;BME280;8055;51.930;8.840;2023-05-02T12:08:23;76766.31;;;-145.72;100.00
15914;BME280;8055;51.930;8.840;2023-05-02T12:10:50;76747.69;;;-145.72;100.00
15914;BME280;8055;51.930;8.840;2023-05-02T12:13:20;76770.44;;;-145.72;100.00
15914;BME280;8055;51.930;8.840;2023-05-02T12:15:47;76778.72;;;-145.72;100.00
15914;BME280;8055;51.930;8.840;2023-05-02T12:18:13;76787.00;;;-145.72;100.00
15914;BME280;8055;51.930;8.840;2023-05-02T12:20:39;76776.66;;;-145.72;100.00
15914;BME280;8055;51.930;8.840;2023-05-02T12:23:05;76807.72;;;-145.72;100.00
15914;BME280;8055;51.930;8.840;2023-05-02T12:25:35;76813.91;;;-145.72;100.00
15914;BME280;8055;51.930;8.840;2023-05-02T12:28:01;76795.28;;;-145.72;100.00
15914;BME280;8055;51.930;8.840;2023-05-02T12:30:28;76805.63;;;-145.72;100.00
15914;BME280;8055;51.930;8.840;2023-05-02T12:32:58;76809.78;;;-145.72;100.00
15914;BME280;8055;51.930;8.840;2023-05-02T12:35:26;76826.34;;;-145.72;100.00
15914;BME280;8055;51.930;8.840;2023-05-02T12:37:52;76824.28;;;-145.72;100.00
15914;BME280;8055;51.930;8.840;2023-05-02T12:40:19;76822.19;;;-145.72;100.00
15914;BME280;8055;51.930;8.840;2023-05-02T12:43:04;76816.00;;;-145.72;100.00
15914;BME280;8055;51.930;8.840;2023-05-02T12:45:33;76832.53;;;-145.72;100.00
15914;BME280;8055;51.930;8.840;2023-05-02T12:48:16;76836.69;;;-145.72;100.00
15914;BME280;8055;51.930;8.840;2023-05-02T12:50:42;76838.75;;;-145.72;100.00
15914;BME280;8055;51.930;8.840;2023-05-02T12:53:08;76844.97;;;-145.72;100.00
15914;BME280;8055;51.930;8.840;2023-05-02T12:55:33;76851.19;;;-145.72;100.00
15914;BME280;8055;51.930;8.840;2023-05-02T12:58:03;76865.66;;;-145.72;100.00
15914;BME280;8055;51.930;8.840;2023-05-02T13:00:30;76861.53;;;-145.72;100.00
15914;BME280;8055;51.930;8.840;2023-05-02T13:02:56;76836.69;;;-145.72;100.00
15914;BME280;8055;51.930;8.840;2023-05-02T13:05:21;76834.63;;;-145.72;100.00
15914;BME280;8055;51.930;8.840;2023-05-02T13:07:47;76822.19;;;-145.72;100.00
15914;BME280;8055;51.930;8.840;2023-05-02T13:10:12;76832.53;;;-145.72;100.00
15914;BME280;8055;51.930;8.840;2023-05-02T13:12:38;76818.06;;;-145.72;100.00
15914;BME280;8055;51.930;8.840;2023-05-02T13:15:05;76784.94;;;-145.72;100.00
15914;BME280;8055;51.930;8.840;2023-05-02T13:17:31;76774.59;;;-145.72;100.00
15914;BME280;8055;51.930;8.840;2023-05-02T13:19:57;76739.41;;;-145.72;100.00